Portada
Imágenes satélite Pronóstico 15 díasClimaPredicción Marítima Ciclones Rayo AeropuertosFAQ Noticias Acerca
El tiempo : Europa África América del Norte América del Sur Asia Australia-Oceanía Otros
Idiomas Contacto

Valencia, España

latitud: 39-30N, longitud: 000-28W, altitud: 69 m


METAR: LEVC 251130Z 13003KT 090V160 CAVOK 28/03 Q1020 NOSIG
TAF: LEVC 251100Z 2512/2612 12006KT 9999 FEW035 TX28/2612Z TN13/2606Z

Hora: 13:52 (11:52 UTC)

Observación

El informe se hizo hace 22 minutos, a las 11:30 UTC
Viento 3 kt del sureste, variando entre este y sur-sureste
Temperatura 28°C
Humedad 20%
Presión 1020 hPa
Visibilidad 10 km o más
sin nubes por debajo de 1500 m y sin presencia de cumulonimbus.

Cambiar las unidades

Pronóstico

El informe se hizo hace 52 minutos, a las 11:00 UTC
Pronóstico válido del 25 a las 12 UTC al 26 a las 12 UTC
Viento 6 kt del este-sureste
Visibilidad 10 km o más
Escasas nubes a una altura de 3500 ft
La información que se ofrece en estas páginas está sujeta a una cláusula de exención de responsabilidad
El tiempo : Europa África América del Norte América del Sur Asia Australia-Oceanía Otros
Imágenes satélite Pronóstico 15 díasClimaPredicción Marítima Ciclones Rayo AeropuertosFAQ Idiomas Contacto Noticias Acerca